sensor_id;sensor_type;location;lat;lon;timestamp;P1;durP1;ratioP1;P2;durP2;ratioP2
26686;SDS011;14298;50.900;4.648;2022-10-17T00:01:08;23.63;;;19.03;;
26686;SDS011;14298;50.900;4.648;2022-10-17T00:03:38;25.00;;;19.07;;
26686;SDS011;14298;50.900;4.648;2022-10-17T00:06:08;28.73;;;21.23;;
26686;SDS011;14298;50.900;4.648;2022-10-17T00:08:38;24.57;;;19.40;;
26686;SDS011;14298;50.900;4.648;2022-10-17T00:11:12;25.37;;;19.77;;
26686;SDS011;14298;50.900;4.648;2022-10-17T00:13:43;23.80;;;18.80;;
26686;SDS011;14298;50.900;4.648;2022-10-17T00:16:12;32.73;;;22.03;;
26686;SDS011;14298;50.900;4.648;2022-10-17T00:18:41;34.90;;;23.50;;
26686;SDS011;14298;50.900;4.648;2022-10-17T00:21:16;28.80;;;19.27;;
26686;SDS011;14298;50.900;4.648;2022-10-17T00:23:45;26.50;;;19.23;;
26686;SDS011;14298;50.900;4.648;2022-10-17T00:26:15;23.20;;;18.77;;
26686;SDS011;14298;50.900;4.648;2022-10-17T00:31:31;23.83;;;18.90;;
26686;SDS011;14298;50.900;4.648;2022-10-17T00:34:01;28.73;;;20.33;;
26686;SDS011;14298;50.900;4.648;2022-10-17T00:36:29;23.80;;;18.00;;
26686;SDS011;14298;50.900;4.648;2022-10-17T00:38:58;22.17;;;18.13;;
26686;SDS011;14298;50.900;4.648;2022-10-17T00:41:27;31.83;;;21.30;;
26686;SDS011;14298;50.900;4.648;2022-10-17T00:46:32;29.53;;;19.80;;
26686;SDS011;14298;50.900;4.648;2022-10-17T00:49:06;19.07;;;16.83;;
26686;SDS011;14298;50.900;4.648;2022-10-17T00:51:40;26.37;;;17.93;;
26686;SDS011;14298;50.900;4.648;2022-10-17T00:54:11;27.17;;;18.07;;
26686;SDS011;14298;50.900;4.648;2022-10-17T00:56:42;27.60;;;18.67;;
26686;SDS011;14298;50.900;4.648;2022-10-17T00:59:12;25.13;;;17.23;;
26686;SDS011;14298;50.900;4.648;2022-10-17T01:01:46;23.10;;;16.37;;
26686;SDS011;14298;50.900;4.648;2022-10-17T01:04:15;20.53;;;15.93;;
26686;SDS011;14298;50.900;4.648;2022-10-17T01:06:45;24.50;;;17.47;;
26686;SDS011;14298;50.900;4.648;2022-10-17T01:09:13;17.93;;;14.57;;
26686;SDS011;14298;50.900;4.648;2022-10-17T01:14:36;17.93;;;14.67;;
26686;SDS011;14298;50.900;4.648;2022-10-17T01:22:44;25.57;;;14.30;;
26686;SDS011;14298;50.900;4.648;2022-10-17T01:28:43;18.53;;;14.23;;
26686;SDS011;14298;50.900;4.648;2022-10-17T01:31:09;18.07;;;16.00;;
26686;SDS011;14298;50.900;4.648;2022-10-17T01:33:43;18.13;;;13.77;;
26686;SDS011;14298;50.900;4.648;2022-10-17T01:39:02;17.90;;;13.57;;
26686;SDS011;14298;50.900;4.648;2022-10-17T01:44:13;16.10;;;13.23;;
26686;SDS011;14298;50.900;4.648;2022-10-17T01:46:43;16.47;;;12.80;;
26686;SDS011;14298;50.900;4.648;2022-10-17T01:49:14;13.40;;;11.70;;
26686;SDS011;14298;50.900;4.648;2022-10-17T01:51:46;14.43;;;12.23;;
26686;SDS011;14298;50.900;4.648;2022-10-17T01:54:18;17.70;;;12.90;;
26686;SDS011;14298;50.900;4.648;2022-10-17T01:57:01;16.10;;;13.10;;
26686;SDS011;14298;50.900;4.648;2022-10-17T01:59:35;15.73;;;12.27;;
26686;SDS011;14298;50.900;4.648;2022-10-17T02:02:11;15.83;;;13.00;;
26686;SDS011;14298;50.900;4.648;2022-10-17T02:04:42;13.33;;;11.77;;
26686;SDS011;14298;50.900;4.648;2022-10-17T02:07:12;20.77;;;13.00;;
26686;SDS011;14298;50.900;4.648;2022-10-17T02:09:40;15.40;;;12.97;;
26686;SDS011;14298;50.900;4.648;2022-10-17T02:14:59;20.07;;;12.60;;
26686;SDS011;14298;50.900;4.648;2022-10-17T02:17:34;17.10;;;12.50;;
26686;SDS011;14298;50.900;4.648;2022-10-17T02:20:23;13.57;;;12.07;;
26686;SDS011;14298;50.900;4.648;2022-10-17T02:23:02;16.33;;;11.37;;
26686;SDS011;14298;50.900;4.648;2022-10-17T02:31:13;14.23;;;11.53;;
26686;SDS011;14298;50.900;4.648;2022-10-17T02:33:56;16.53;;;11.33;;
26686;SDS011;14298;50.900;4.648;2022-10-17T02:36:31;17.03;;;10.77;;
26686;SDS011;14298;50.900;4.648;2022-10-17T02:39:02;14.27;;;11.27;;
26686;SDS011;14298;50.900;4.648;2022-10-17T02:41:31;13.10;;;10.70;;
26686;SDS011;14298;50.900;4.648;2022-10-17T02:44:02;15.60;;;10.60;;
26686;SDS011;14298;50.900;4.648;2022-10-17T02:46:33;13.10;;;10.73;;
26686;SDS011;14298;50.900;4.648;2022-10-17T02:51:56;17.87;;;11.13;;
26686;SDS011;14298;50.900;4.648;2022-10-17T02:54:32;10.90;;;9.60;;
26686;SDS011;14298;50.900;4.648;2022-10-17T02:57:10;13.80;;;10.57;;
26686;SDS011;14298;50.900;4.648;2022-10-17T02:59:36;11.53;;;10.30;;
26686;SDS011;14298;50.900;4.648;2022-10-17T03:02:07;12.73;;;9.57;;
26686;SDS011;14298;50.900;4.648;2022-10-17T03:04:35;17.13;;;10.73;;
26686;SDS011;14298;50.900;4.648;2022-10-17T03:07:04;15.83;;;10.43;;
26686;SDS011;14298;50.900;4.648;2022-10-17T03:09:32;15.67;;;10.73;;
26686;SDS011;14298;50.900;4.648;2022-10-17T03:12:00;14.50;;;10.57;;
26686;SDS011;14298;50.900;4.648;2022-10-17T03:14:29;15.17;;;10.30;;
26686;SDS011;14298;50.900;4.648;2022-10-17T03:16:57;11.27;;;9.03;;
26686;SDS011;14298;50.900;4.648;2022-10-17T03:19:25;11.27;;;8.77;;
26686;SDS011;14298;50.900;4.648;2022-10-17T03:21:54;11.20;;;9.30;;
26686;SDS011;14298;50.900;4.648;2022-10-17T03:24:22;10.27;;;8.93;;
26686;SDS011;14298;50.900;4.648;2022-10-17T03:26:50;10.93;;;9.03;;
26686;SDS011;14298;50.900;4.648;2022-10-17T03:29:19;11.37;;;9.20;;
26686;SDS011;14298;50.900;4.648;2022-10-17T03:31:47;11.97;;;8.47;;
26686;SDS011;14298;50.900;4.648;2022-10-17T03:34:15;11.50;;;8.80;;
26686;SDS011;14298;50.900;4.648;2022-10-17T03:36:44;11.23;;;9.63;;
26686;SDS011;14298;50.900;4.648;2022-10-17T03:39:12;12.30;;;9.27;;
26686;SDS011;14298;50.900;4.648;2022-10-17T03:41:41;9.63;;;7.90;;
26686;SDS011;14298;50.900;4.648;2022-10-17T03:44:09;12.70;;;9.50;;
26686;SDS011;14298;50.900;4.648;2022-10-17T03:46:37;11.20;;;9.20;;
26686;SDS011;14298;50.900;4.648;2022-10-17T03:49:07;10.37;;;9.30;;
26686;SDS011;14298;50.900;4.648;2022-10-17T03:51:36;9.73;;;8.70;;
26686;SDS011;14298;50.900;4.648;2022-10-17T03:54:04;9.97;;;8.47;;
26686;SDS011;14298;50.900;4.648;2022-10-17T03:56:33;11.47;;;9.30;;
26686;SDS011;14298;50.900;4.648;2022-10-17T03:59:01;10.87;;;8.67;;
26686;SDS011;14298;50.900;4.648;2022-10-17T04:01:29;10.43;;;8.77;;
26686;SDS011;14298;50.900;4.648;2022-10-17T04:03:58;11.47;;;8.30;;
26686;SDS011;14298;50.900;4.648;2022-10-17T04:06:26;10.77;;;7.77;;
26686;SDS011;14298;50.900;4.648;2022-10-17T04:08:54;13.47;;;8.80;;
26686;SDS011;14298;50.900;4.648;2022-10-17T04:11:23;9.97;;;8.27;;
26686;SDS011;14298;50.900;4.648;2022-10-17T04:13:52;11.43;;;7.90;;
26686;SDS011;14298;50.900;4.648;2022-10-17T04:16:22;10.53;;;8.07;;
26686;SDS011;14298;50.900;4.648;2022-10-17T04:18:52;10.47;;;8.47;;
26686;SDS011;14298;50.900;4.648;2022-10-17T04:21:21;10.27;;;8.67;;
26686;SDS011;14298;50.900;4.648;2022-10-17T04:23:52;10.50;;;8.90;;
26686;SDS011;14298;50.900;4.648;2022-10-17T04:26:22;11.57;;;9.13;;
26686;SDS011;14298;50.900;4.648;2022-10-17T04:28:50;11.40;;;9.60;;
26686;SDS011;14298;50.900;4.648;2022-10-17T04:31:19;12.80;;;9.17;;
26686;SDS011;14298;50.900;4.648;2022-10-17T04:33:48;10.80;;;8.77;;
26686;SDS011;14298;50.900;4.648;2022-10-17T04:36:18;8.33;;;7.53;;
26686;SDS011;14298;50.900;4.648;2022-10-17T04:38:48;11.07;;;8.03;;
26686;SDS011;14298;50.900;4.648;2022-10-17T04:41:17;10.53;;;8.83;;
26686;SDS011;14298;50.900;4.648;2022-10-17T04:43:45;10.00;;;8.53;;
26686;SDS011;14298;50.900;4.648;2022-10-17T04:46:14;9.20;;;8.30;;
26686;SDS011;14298;50.900;4.648;2022-10-17T04:48:42;8.73;;;7.63;;
26686;SDS011;14298;50.900;4.648;2022-10-17T04:51:12;13.80;;;12.37;;
26686;SDS011;14298;50.900;4.648;2022-10-17T04:53:42;10.77;;;9.63;;
26686;SDS011;14298;50.900;4.648;2022-10-17T04:56:13;19.60;;;17.50;;
26686;SDS011;14298;50.900;4.648;2022-10-17T04:58:43;10.80;;;8.27;;
26686;SDS011;14298;50.900;4.648;2022-10-17T05:01:13;8.20;;;7.40;;
26686;SDS011;14298;50.900;4.648;2022-10-17T05:03:43;9.73;;;8.67;;
26686;SDS011;14298;50.900;4.648;2022-10-17T05:06:13;11.57;;;10.07;;
26686;SDS011;14298;50.900;4.648;2022-10-17T05:08:43;13.27;;;9.83;;
26686;SDS011;14298;50.900;4.648;2022-10-17T05:11:18;13.37;;;9.47;;
26686;SDS011;14298;50.900;4.648;2022-10-17T05:14:01;10.07;;;8.97;;
26686;SDS011;14298;50.900;4.648;2022-10-17T05:16:26;12.50;;;9.70;;
26686;SDS011;14298;50.900;4.648;2022-10-17T05:18:55;12.63;;;7.43;;
26686;SDS011;14298;50.900;4.648;2022-10-17T05:21:25;10.30;;;9.30;;
26686;SDS011;14298;50.900;4.648;2022-10-17T05:23:54;12.10;;;8.73;;
26686;SDS011;14298;50.900;4.648;2022-10-17T05:26:23;12.83;;;7.73;;
26686;SDS011;14298;50.900;4.648;2022-10-17T05:28:52;8.20;;;7.07;;
26686;SDS011;14298;50.900;4.648;2022-10-17T05:31:21;13.80;;;7.53;;
26686;SDS011;14298;50.900;4.648;2022-10-17T05:33:49;9.70;;;6.73;;
26686;SDS011;14298;50.900;4.648;2022-10-17T05:36:18;8.30;;;7.43;;
26686;SDS011;14298;50.900;4.648;2022-10-17T05:38:49;7.27;;;6.20;;
26686;SDS011;14298;50.900;4.648;2022-10-17T05:41:18;8.03;;;6.20;;
26686;SDS011;14298;50.900;4.648;2022-10-17T05:43:47;8.73;;;7.00;;
26686;SDS011;14298;50.900;4.648;2022-10-17T05:46:16;13.37;;;6.47;;
26686;SDS011;14298;50.900;4.648;2022-10-17T05:48:44;7.77;;;6.27;;
26686;SDS011;14298;50.900;4.648;2022-10-17T05:51:13;8.40;;;6.20;;
26686;SDS011;14298;50.900;4.648;2022-10-17T05:53:41;7.57;;;6.10;;
26686;SDS011;14298;50.900;4.648;2022-10-17T05:56:10;8.87;;;6.10;;
26686;SDS011;14298;50.900;4.648;2022-10-17T05:58:40;9.60;;;6.53;;
26686;SDS011;14298;50.900;4.648;2022-10-17T06:01:11;9.97;;;6.90;;
26686;SDS011;14298;50.900;4.648;2022-10-17T06:03:39;10.00;;;6.20;;
26686;SDS011;14298;50.900;4.648;2022-10-17T06:06:09;9.63;;;6.00;;
26686;SDS011;14298;50.900;4.648;2022-10-17T06:08:38;8.23;;;6.30;;
26686;SDS011;14298;50.900;4.648;2022-10-17T06:11:07;7.07;;;6.37;;
26686;SDS011;14298;50.900;4.648;2022-10-17T06:13:35;9.83;;;6.30;;
26686;SDS011;14298;50.900;4.648;2022-10-17T06:16:04;9.83;;;5.90;;
26686;SDS011;14298;50.900;4.648;2022-10-17T06:18:33;7.57;;;6.20;;
26686;SDS011;14298;50.900;4.648;2022-10-17T06:21:06;7.30;;;6.20;;
26686;SDS011;14298;50.900;4.648;2022-10-17T06:23:36;7.63;;;6.37;;
26686;SDS011;14298;50.900;4.648;2022-10-17T06:26:05;8.00;;;6.27;;
26686;SDS011;14298;50.900;4.648;2022-10-17T06:28:34;6.43;;;5.57;;
26686;SDS011;14298;50.900;4.648;2022-10-17T06:31:06;6.77;;;5.57;;
26686;SDS011;14298;50.900;4.648;2022-10-17T06:36:24;9.40;;;5.80;;
26686;SDS011;14298;50.900;4.648;2022-10-17T06:38:52;6.17;;;5.50;;
26686;SDS011;14298;50.900;4.648;2022-10-17T06:41:20;6.70;;;5.97;;
26686;SDS011;14298;50.900;4.648;2022-10-17T06:43:49;8.90;;;6.50;;
26686;SDS011;14298;50.900;4.648;2022-10-17T06:46:17;12.27;;;5.57;;
26686;SDS011;14298;50.900;4.648;2022-10-17T06:48:46;9.13;;;5.80;;
26686;SDS011;14298;50.900;4.648;2022-10-17T06:51:15;8.50;;;5.33;;
26686;SDS011;14298;50.900;4.648;2022-10-17T06:53:43;7.60;;;4.90;;
26686;SDS011;14298;50.900;4.648;2022-10-17T06:56:11;6.90;;;5.20;;
26686;SDS011;14298;50.900;4.648;2022-10-17T06:58:40;5.70;;;4.67;;
26686;SDS011;14298;50.900;4.648;2022-10-17T07:01:09;7.53;;;5.50;;
26686;SDS011;14298;50.900;4.648;2022-10-17T07:03:39;8.33;;;5.83;;
26686;SDS011;14298;50.900;4.648;2022-10-17T07:06:09;6.83;;;4.87;;
26686;SDS011;14298;50.900;4.648;2022-10-17T07:08:41;6.10;;;5.20;;
26686;SDS011;14298;50.900;4.648;2022-10-17T07:11:11;7.20;;;4.40;;
26686;SDS011;14298;50.900;4.648;2022-10-17T07:13:42;6.27;;;4.80;;
26686;SDS011;14298;50.900;4.648;2022-10-17T07:16:11;5.37;;;4.27;;
26686;SDS011;14298;50.900;4.648;2022-10-17T07:18:41;6.57;;;4.33;;
26686;SDS011;14298;50.900;4.648;2022-10-17T07:21:10;8.63;;;5.23;;
26686;SDS011;14298;50.900;4.648;2022-10-17T07:23:38;6.57;;;5.37;;
26686;SDS011;14298;50.900;4.648;2022-10-17T07:26:08;11.60;;;5.73;;
26686;SDS011;14298;50.900;4.648;2022-10-17T07:28:40;5.83;;;4.50;;
26686;SDS011;14298;50.900;4.648;2022-10-17T07:31:10;6.23;;;4.87;;
26686;SDS011;14298;50.900;4.648;2022-10-17T07:33:40;7.17;;;5.00;;
26686;SDS011;14298;50.900;4.648;2022-10-17T07:36:09;8.53;;;4.80;;
26686;SDS011;14298;50.900;4.648;2022-10-17T07:38:39;9.07;;;5.10;;
26686;SDS011;14298;50.900;4.648;2022-10-17T07:41:08;6.43;;;5.23;;
26686;SDS011;14298;50.900;4.648;2022-10-17T07:43:39;6.13;;;4.77;;
26686;SDS011;14298;50.900;4.648;2022-10-17T07:46:08;8.53;;;4.90;;
26686;SDS011;14298;50.900;4.648;2022-10-17T07:48:37;9.27;;;5.27;;
26686;SDS011;14298;50.900;4.648;2022-10-17T07:51:07;10.63;;;5.63;;
26686;SDS011;14298;50.900;4.648;2022-10-17T07:53:37;7.17;;;5.53;;
26686;SDS011;14298;50.900;4.648;2022-10-17T07:56:06;11.67;;;5.67;;
26686;SDS011;14298;50.900;4.648;2022-10-17T07:58:36;6.70;;;5.63;;
26686;SDS011;14298;50.900;4.648;2022-10-17T08:01:10;7.13;;;5.60;;
26686;SDS011;14298;50.900;4.648;2022-10-17T08:03:36;10.07;;;5.77;;
26686;SDS011;14298;50.900;4.648;2022-10-17T08:06:04;11.47;;;6.13;;
26686;SDS011;14298;50.900;4.648;2022-10-17T08:08:33;8.67;;;5.70;;
26686;SDS011;14298;50.900;4.648;2022-10-17T08:11:02;7.23;;;5.77;;
26686;SDS011;14298;50.900;4.648;2022-10-17T08:13:32;7.53;;;6.03;;
26686;SDS011;14298;50.900;4.648;2022-10-17T08:16:01;7.50;;;5.67;;
26686;SDS011;14298;50.900;4.648;2022-10-17T08:18:33;8.37;;;6.10;;
26686;SDS011;14298;50.900;4.648;2022-10-17T08:21:03;7.70;;;5.53;;
26686;SDS011;14298;50.900;4.648;2022-10-17T08:23:34;12.40;;;5.83;;
26686;SDS011;14298;50.900;4.648;2022-10-17T08:26:04;8.93;;;5.73;;
26686;SDS011;14298;50.900;4.648;2022-10-17T08:28:37;12.60;;;6.10;;
26686;SDS011;14298;50.900;4.648;2022-10-17T08:31:07;9.23;;;6.33;;
26686;SDS011;14298;50.900;4.648;2022-10-17T08:33:37;23.73;;;8.43;;
26686;SDS011;14298;50.900;4.648;2022-10-17T08:36:06;18.10;;;10.27;;
26686;SDS011;14298;50.900;4.648;2022-10-17T08:38:37;18.80;;;14.97;;
26686;SDS011;14298;50.900;4.648;2022-10-17T08:41:06;22.80;;;12.50;;
26686;SDS011;14298;50.900;4.648;2022-10-17T08:46:19;12.43;;;10.53;;
26686;SDS011;14298;50.900;4.648;2022-10-17T08:48:48;21.90;;;14.27;;
26686;SDS011;14298;50.900;4.648;2022-10-17T08:51:20;11.17;;;10.03;;
26686;SDS011;14298;50.900;4.648;2022-10-17T08:53:51;17.90;;;12.77;;
26686;SDS011;14298;50.900;4.648;2022-10-17T08:56:32;14.50;;;10.93;;
26686;SDS011;14298;50.900;4.648;2022-10-17T08:58:55;22.97;;;14.93;;
26686;SDS011;14298;50.900;4.648;2022-10-17T09:01:31;20.37;;;13.80;;
26686;SDS011;14298;50.900;4.648;2022-10-17T09:04:02;20.43;;;14.43;;
26686;SDS011;14298;50.900;4.648;2022-10-17T09:06:32;23.90;;;15.40;;
26686;SDS011;14298;50.900;4.648;2022-10-17T09:20:20;22.80;;;15.10;;
26686;SDS011;14298;50.900;4.648;2022-10-17T09:22:57;31.23;;;19.40;;
26686;SDS011;14298;50.900;4.648;2022-10-17T09:25:28;28.00;;;17.27;;
26686;SDS011;14298;50.900;4.648;2022-10-17T09:33:15;19.80;;;15.20;;
26686;SDS011;14298;50.900;4.648;2022-10-17T09:35:45;20.43;;;14.40;;
26686;SDS011;14298;50.900;4.648;2022-10-17T09:38:25;15.50;;;13.40;;
26686;SDS011;14298;50.900;4.648;2022-10-17T09:40:55;27.60;;;18.17;;
26686;SDS011;14298;50.900;4.648;2022-10-17T09:43:24;25.03;;;16.37;;
26686;SDS011;14298;50.900;4.648;2022-10-17T09:48:47;26.53;;;19.03;;
26686;SDS011;14298;50.900;4.648;2022-10-17T09:51:17;30.17;;;17.40;;
26686;SDS011;14298;50.900;4.648;2022-10-17T09:53:47;38.60;;;20.33;;
26686;SDS011;14298;50.900;4.648;2022-10-17T09:56:18;35.27;;;20.83;;
26686;SDS011;14298;50.900;4.648;2022-10-17T09:58:47;37.67;;;22.43;;
26686;SDS011;14298;50.900;4.648;2022-10-17T10:01:30;47.27;;;24.80;;
26686;SDS011;14298;50.900;4.648;2022-10-17T10:06:40;41.70;;;24.57;;
26686;SDS011;14298;50.900;4.648;2022-10-17T10:09:19;50.40;;;26.67;;
26686;SDS011;14298;50.900;4.648;2022-10-17T10:11:52;30.60;;;19.90;;
26686;SDS011;14298;50.900;4.648;2022-10-17T10:14:32;27.73;;;18.07;;
26686;SDS011;14298;50.900;4.648;2022-10-17T10:17:03;34.50;;;21.17;;
26686;SDS011;14298;50.900;4.648;2022-10-17T10:19:35;36.47;;;22.17;;
26686;SDS011;14298;50.900;4.648;2022-10-17T10:22:05;25.50;;;18.27;;
26686;SDS011;14298;50.900;4.648;2022-10-17T10:24:44;38.07;;;23.20;;
26686;SDS011;14298;50.900;4.648;2022-10-17T10:27:13;30.70;;;20.33;;
26686;SDS011;14298;50.900;4.648;2022-10-17T10:29:49;46.87;;;25.23;;
26686;SDS011;14298;50.900;4.648;2022-10-17T10:32:22;43.50;;;25.97;;
26686;SDS011;14298;50.900;4.648;2022-10-17T10:34:54;44.67;;;26.43;;
26686;SDS011;14298;50.900;4.648;2022-10-17T10:37:44;56.00;;;27.13;;
26686;SDS011;14298;50.900;4.648;2022-10-17T10:40:31;28.80;;;18.87;;
26686;SDS011;14298;50.900;4.648;2022-10-17T10:43:04;37.87;;;23.43;;
26686;SDS011;14298;50.900;4.648;2022-10-17T10:48:19;28.80;;;20.17;;
26686;SDS011;14298;50.900;4.648;2022-10-17T10:53:46;29.13;;;20.23;;
26686;SDS011;14298;50.900;4.648;2022-10-17T10:56:23;30.77;;;20.97;;
26686;SDS011;14298;50.900;4.648;2022-10-17T11:07:16;27.50;;;19.07;;
26686;SDS011;14298;50.900;4.648;2022-10-17T11:09:50;31.17;;;20.50;;
26686;SDS011;14298;50.900;4.648;2022-10-17T11:17:33;29.03;;;18.30;;
26686;SDS011;14298;50.900;4.648;2022-10-17T11:22:42;28.80;;;20.13;;
26686;SDS011;14298;50.900;4.648;2022-10-17T11:27:40;22.97;;;16.83;;
26686;SDS011;14298;50.900;4.648;2022-10-17T11:30:14;22.33;;;14.20;;
26686;SDS011;14298;50.900;4.648;2022-10-17T11:32:44;19.13;;;14.27;;
26686;SDS011;14298;50.900;4.648;2022-10-17T11:35:31;18.40;;;14.03;;
26686;SDS011;14298;50.900;4.648;2022-10-17T11:40:44;14.90;;;10.80;;
26686;SDS011;14298;50.900;4.648;2022-10-17T11:43:24;20.73;;;15.70;;
26686;SDS011;14298;50.900;4.648;2022-10-17T11:46:12;22.27;;;13.27;;
26686;SDS011;14298;50.900;4.648;2022-10-17T11:48:51;15.10;;;12.17;;
26686;SDS011;14298;50.900;4.648;2022-10-17T11:51:19;20.40;;;12.80;;
26686;SDS011;14298;50.900;4.648;2022-10-17T11:53:54;16.47;;;13.03;;
26686;SDS011;14298;50.900;4.648;2022-10-17T11:56:25;18.57;;;12.77;;
26686;SDS011;14298;50.900;4.648;2022-10-17T11:58:57;20.13;;;14.70;;
26686;SDS011;14298;50.900;4.648;2022-10-17T12:01:34;13.43;;;11.37;;
26686;SDS011;14298;50.900;4.648;2022-10-17T12:12:44;16.33;;;12.27;;
26686;SDS011;14298;50.900;4.648;2022-10-17T12:18:01;16.90;;;12.23;;
26686;SDS011;14298;50.900;4.648;2022-10-17T12:20:34;21.23;;;13.00;;
26686;SDS011;14298;50.900;4.648;2022-10-17T12:25:57;22.60;;;14.03;;
26686;SDS011;14298;50.900;4.648;2022-10-17T12:34:00;29.47;;;18.00;;
26686;SDS011;14298;50.900;4.648;2022-10-17T12:49:43;23.97;;;13.43;;
26686;SDS011;14298;50.900;4.648;2022-10-17T12:52:23;18.87;;;13.50;;
26686;SDS011;14298;50.900;4.648;2022-10-17T13:00:15;26.17;;;17.47;;
26686;SDS011;14298;50.900;4.648;2022-10-17T13:02:45;28.03;;;19.07;;
26686;SDS011;14298;50.900;4.648;2022-10-17T13:05:21;25.83;;;16.13;;
26686;SDS011;14298;50.900;4.648;2022-10-17T13:07:46;22.80;;;18.73;;
26686;SDS011;14298;50.900;4.648;2022-10-17T13:10:20;21.30;;;16.60;;
26686;SDS011;14298;50.900;4.648;2022-10-17T13:12:51;22.00;;;15.70;;
26686;SDS011;14298;50.900;4.648;2022-10-17T13:15:22;26.83;;;17.23;;
26686;SDS011;14298;50.900;4.648;2022-10-17T13:17:54;24.07;;;18.37;;
26686;SDS011;14298;50.900;4.648;2022-10-17T13:20:24;18.60;;;15.43;;
26686;SDS011;14298;50.900;4.648;2022-10-17T13:22:54;19.73;;;14.67;;
26686;SDS011;14298;50.900;4.648;2022-10-17T13:25:24;24.73;;;15.73;;
26686;SDS011;14298;50.900;4.648;2022-10-17T13:28:04;23.87;;;16.37;;
26686;SDS011;14298;50.900;4.648;2022-10-17T13:30:35;19.90;;;15.13;;
26686;SDS011;14298;50.900;4.648;2022-10-17T13:33:15;17.33;;;14.13;;
26686;SDS011;14298;50.900;4.648;2022-10-17T13:35:45;20.57;;;13.80;;
26686;SDS011;14298;50.900;4.648;2022-10-17T13:41:03;18.13;;;12.93;;
26686;SDS011;14298;50.900;4.648;2022-10-17T13:43:34;19.03;;;14.53;;
26686;SDS011;14298;50.900;4.648;2022-10-17T13:46:04;17.77;;;13.93;;
26686;SDS011;14298;50.900;4.648;2022-10-17T13:48:34;16.30;;;12.73;;
26686;SDS011;14298;50.900;4.648;2022-10-17T13:51:03;18.13;;;13.87;;
26686;SDS011;14298;50.900;4.648;2022-10-17T13:53:33;18.40;;;13.20;;
26686;SDS011;14298;50.900;4.648;2022-10-17T13:56:27;17.87;;;12.87;;
26686;SDS011;14298;50.900;4.648;2022-10-17T13:58:47;20.13;;;11.87;;
26686;SDS011;14298;50.900;4.648;2022-10-17T14:01:18;18.07;;;12.33;;
26686;SDS011;14298;50.900;4.648;2022-10-17T14:03:47;18.37;;;11.97;;
26686;SDS011;14298;50.900;4.648;2022-10-17T14:09:23;14.73;;;10.07;;
26686;SDS011;14298;50.900;4.648;2022-10-17T14:12:08;10.80;;;9.30;;
26686;SDS011;14298;50.900;4.648;2022-10-17T14:14:33;14.13;;;9.00;;
26686;SDS011;14298;50.900;4.648;2022-10-17T14:17:02;10.23;;;7.83;;
26686;SDS011;14298;50.900;4.648;2022-10-17T14:22:27;10.47;;;7.67;;
26686;SDS011;14298;50.900;4.648;2022-10-17T14:24:56;7.37;;;6.63;;
26686;SDS011;14298;50.900;4.648;2022-10-17T14:27:32;9.53;;;7.93;;
26686;SDS011;14298;50.900;4.648;2022-10-17T14:30:05;9.80;;;8.17;;
26686;SDS011;14298;50.900;4.648;2022-10-17T14:32:35;11.07;;;8.63;;
26686;SDS011;14298;50.900;4.648;2022-10-17T14:35:04;11.13;;;8.10;;
26686;SDS011;14298;50.900;4.648;2022-10-17T14:37:46;9.77;;;6.80;;
26686;SDS011;14298;50.900;4.648;2022-10-17T14:40:20;9.07;;;8.10;;
26686;SDS011;14298;50.900;4.648;2022-10-17T14:42:51;10.00;;;8.57;;
26686;SDS011;14298;50.900;4.648;2022-10-17T14:45:24;9.23;;;8.23;;
26686;SDS011;14298;50.900;4.648;2022-10-17T14:47:54;8.23;;;7.00;;
26686;SDS011;14298;50.900;4.648;2022-10-17T14:50:25;10.37;;;7.33;;
26686;SDS011;14298;50.900;4.648;2022-10-17T14:52:59;12.37;;;8.80;;
26686;SDS011;14298;50.900;4.648;2022-10-17T14:55:30;12.10;;;7.67;;
26686;SDS011;14298;50.900;4.648;2022-10-17T14:58:00;10.10;;;7.33;;
26686;SDS011;14298;50.900;4.648;2022-10-17T15:00:30;10.43;;;7.13;;
26686;SDS011;14298;50.900;4.648;2022-10-17T15:02:59;9.43;;;6.90;;
26686;SDS011;14298;50.900;4.648;2022-10-17T15:05:27;12.27;;;7.17;;
26686;SDS011;14298;50.900;4.648;2022-10-17T15:10:44;8.73;;;6.80;;
26686;SDS011;14298;50.900;4.648;2022-10-17T15:13:14;14.17;;;7.17;;
26686;SDS011;14298;50.900;4.648;2022-10-17T15:15:43;8.07;;;6.70;;
26686;SDS011;14298;50.900;4.648;2022-10-17T15:18:12;8.67;;;5.77;;
26686;SDS011;14298;50.900;4.648;2022-10-17T15:20:40;7.30;;;6.20;;
26686;SDS011;14298;50.900;4.648;2022-10-17T15:23:08;9.43;;;6.87;;
26686;SDS011;14298;50.900;4.648;2022-10-17T15:25:37;7.23;;;5.63;;
26686;SDS011;14298;50.900;4.648;2022-10-17T15:28:06;10.13;;;6.00;;
26686;SDS011;14298;50.900;4.648;2022-10-17T15:30:36;8.97;;;6.37;;
26686;SDS011;14298;50.900;4.648;2022-10-17T15:33:04;9.03;;;6.10;;
26686;SDS011;14298;50.900;4.648;2022-10-17T15:35:33;10.07;;;6.07;;
26686;SDS011;14298;50.900;4.648;2022-10-17T15:38:04;7.40;;;5.40;;
26686;SDS011;14298;50.900;4.648;2022-10-17T15:40:33;6.57;;;4.93;;
26686;SDS011;14298;50.900;4.648;2022-10-17T15:43:01;7.60;;;6.47;;
26686;SDS011;14298;50.900;4.648;2022-10-17T15:45:29;11.53;;;5.63;;
26686;SDS011;14298;50.900;4.648;2022-10-17T15:48:02;13.83;;;6.60;;
26686;SDS011;14298;50.900;4.648;2022-10-17T15:50:31;8.57;;;6.47;;
26686;SDS011;14298;50.900;4.648;2022-10-17T15:52:59;14.07;;;7.17;;
26686;SDS011;14298;50.900;4.648;2022-10-17T15:55:27;9.63;;;5.90;;
26686;SDS011;14298;50.900;4.648;2022-10-17T15:57:57;7.17;;;5.97;;
26686;SDS011;14298;50.900;4.648;2022-10-17T16:00:25;7.93;;;6.63;;
26686;SDS011;14298;50.900;4.648;2022-10-17T16:02:54;9.00;;;6.83;;
26686;SDS011;14298;50.900;4.648;2022-10-17T16:05:23;10.53;;;6.03;;
26686;SDS011;14298;50.900;4.648;2022-10-17T16:07:52;8.83;;;6.20;;
26686;SDS011;14298;50.900;4.648;2022-10-17T16:10:21;9.10;;;6.53;;
26686;SDS011;14298;50.900;4.648;2022-10-17T16:12:52;7.53;;;6.67;;
26686;SDS011;14298;50.900;4.648;2022-10-17T16:15:27;9.37;;;6.63;;
26686;SDS011;14298;50.900;4.648;2022-10-17T16:17:54;11.87;;;7.87;;
26686;SDS011;14298;50.900;4.648;2022-10-17T16:20:23;14.47;;;8.37;;
26686;SDS011;14298;50.900;4.648;2022-10-17T16:22:52;10.13;;;7.07;;
26686;SDS011;14298;50.900;4.648;2022-10-17T16:25:24;7.17;;;6.27;;
26686;SDS011;14298;50.900;4.648;2022-10-17T16:27:55;11.00;;;7.20;;
26686;SDS011;14298;50.900;4.648;2022-10-17T16:30:25;10.00;;;7.00;;
26686;SDS011;14298;50.900;4.648;2022-10-17T16:32:54;9.73;;;7.27;;
26686;SDS011;14298;50.900;4.648;2022-10-17T16:35:27;11.80;;;8.10;;
26686;SDS011;14298;50.900;4.648;2022-10-17T16:37:57;15.30;;;8.97;;
26686;SDS011;14298;50.900;4.648;2022-10-17T16:40:25;21.30;;;14.70;;
26686;SDS011;14298;50.900;4.648;2022-10-17T16:42:53;103.73;;;54.50;;
26686;SDS011;14298;50.900;4.648;2022-10-17T16:45:22;133.73;;;59.07;;
26686;SDS011;14298;50.900;4.648;2022-10-17T16:47:50;137.13;;;56.07;;
26686;SDS011;14298;50.900;4.648;2022-10-17T16:50:19;179.00;;;71.90;;
26686;SDS011;14298;50.900;4.648;2022-10-17T16:52:47;307.20;;;121.43;;
26686;SDS011;14298;50.900;4.648;2022-10-17T16:55:15;77.77;;;44.37;;
26686;SDS011;14298;50.900;4.648;2022-10-17T16:57:44;26.23;;;18.77;;
26686;SDS011;14298;50.900;4.648;2022-10-17T17:00:14;21.43;;;15.13;;
26686;SDS011;14298;50.900;4.648;2022-10-17T17:02:43;25.97;;;23.17;;
26686;SDS011;14298;50.900;4.648;2022-10-17T17:05:16;20.60;;;16.33;;
26686;SDS011;14298;50.900;4.648;2022-10-17T17:07:44;19.97;;;17.80;;
26686;SDS011;14298;50.900;4.648;2022-10-17T17:10:13;18.50;;;16.57;;